Time;durP1;ratioP1;P1;durP2;ratioP2;P2;SDS_P1;SDS_P2;PMS_P1;PMS_P2;Temp;Humidity;BMP_temperature;BMP_pressure;BME280_temperature;BME280_humidity;BME280_pressure;Samples;Min_cycle;Max_cycle;Signal;HPM_P1;HPM_P2
2023/12/13 00:00:39;;;;;;;;;;;8.00;99.90;;;;;;5064770;28;20003;-74
2023/12/13 00:03:05;;;;;;;;;;;8.00;99.90;;;;;;5054059;28;19928;-74
2023/12/13 00:05:30;;;;;;;;;;;8.00;99.90;;;;;;5069682;28;19932;-74
2023/12/13 00:07:56;;;;;;;;;;;8.00;99.90;;;;;;5048982;28;20660;-73
2023/12/13 00:10:21;;;;;;;;;;;8.00;99.90;;;;;;5051693;28;20062;-73
2023/12/13 00:12:46;;;;;;;;;;;8.00;99.90;;;;;;5051697;28;19985;-73
2023/12/13 00:15:12;;;;;;;;;;;8.00;99.90;;;;;;5068977;28;19935;-73
2023/12/13 00:17:38;;;;;;;;;;;8.00;99.90;;;;;;5067281;28;20307;-74
2023/12/13 00:20:05;;;;;;;;;;;8.00;99.90;;;;;;5051225;28;19929;-74
2023/12/13 00:22:31;;;;;;;;;;;8.00;99.90;;;;;;5056936;28;19931;-74
2023/12/13 00:24:57;;;;;;;;;;;8.00;99.90;;;;;;5058331;28;19928;-74
2023/12/13 00:27:22;;;;;;;;;;;8.00;99.90;;;;;;5053113;28;19928;-74
2023/12/13 00:29:48;;;;;;;;;;;8.00;99.90;;;;;;5057412;28;19934;-74
2023/12/13 00:32:13;;;;;;;;;;;8.00;99.90;;;;;;5053637;28;19921;-74
2023/12/13 00:34:39;;;;;;;;;;;8.00;99.90;;;;;;5055596;28;19940;-74
2023/12/13 00:37:05;;;;;;;;;;;8.00;99.90;;;;;;5055974;28;20375;-73
2023/12/13 00:39:31;;;;;;;;;;;8.00;99.90;;;;;;5055372;28;19939;-73
2023/12/13 00:41:57;;;;;;;;;;;8.00;99.90;;;;;;5071979;28;20016;-73
2023/12/13 00:44:22;;;;;;;;;;;8.00;99.90;;;;;;5075384;28;20010;-73
2023/12/13 00:46:48;;;;;;;;;;;8.00;99.90;;;;;;5068291;28;19932;-73
2023/12/13 00:49:14;;;;;;;;;;;8.00;99.90;;;;;;5069733;28;19925;-73
2023/12/13 00:51:40;;;;;;;;;;;8.00;99.90;;;;;;5058371;28;20288;-73
2023/12/13 00:54:05;;;;;;;;;;;8.00;99.90;;;;;;5058672;28;19939;-73
2023/12/13 00:56:31;;;;;;;;;;;8.00;99.90;;;;;;5055002;28;20575;-73
2023/12/13 00:58:57;;;;;;;;;;;8.00;99.90;;;;;;5071190;28;19925;-73
2023/12/13 01:01:24;;;;;;;;;;;8.00;99.90;;;;;;5055379;28;20426;-73
2023/12/13 01:03:49;;;;;;;;;;;8.00;99.90;;;;;;5068891;28;19928;-73
2023/12/13 01:06:15;;;;;;;;;;;8.00;99.90;;;;;;5050483;28;19924;-73
2023/12/13 01:08:40;;;;;;;;;;;8.00;99.90;;;;;;5055950;28;19933;-73
2023/12/13 01:11:07;;;;;;;;;;;8.00;99.90;;;;;;5057835;28;19933;-72
2023/12/13 01:13:33;;;;;;;;;;;8.00;99.90;;;;;;5051328;28;20780;-73
2023/12/13 01:15:58;;;;;;;;;;;8.00;99.90;;;;;;5039936;28;20027;-73
2023/12/13 01:18:24;;;;;;;;;;;8.00;99.90;;;;;;5077638;28;19930;-73
2023/12/13 01:20:49;;;;;;;;;;;7.90;99.90;;;;;;5053511;28;20019;-73
2023/12/13 01:23:15;;;;;;;;;;;7.90;99.90;;;;;;5070770;28;20372;-73
2023/12/13 01:25:40;;;;;;;;;;;7.90;99.90;;;;;;5067998;28;20133;-73
2023/12/13 01:28:06;;;;;;;;;;;7.90;99.90;;;;;;5068479;28;19969;-73
2023/12/13 01:30:32;;;;;;;;;;;7.90;99.90;;;;;;5034545;28;19928;-73
2023/12/13 01:32:57;;;;;;;;;;;7.90;99.90;;;;;;5052619;28;19933;-73
2023/12/13 01:35:23;;;;;;;;;;;7.90;99.90;;;;;;5068091;28;19924;-73
2023/12/13 01:37:48;;;;;;;;;;;7.90;99.90;;;;;;5058807;28;19932;-72
2023/12/13 01:40:14;;;;;;;;;;;7.90;99.90;;;;;;5084648;28;20015;-73
2023/12/13 01:42:39;;;;;;;;;;;7.90;99.90;;;;;;5051015;28;19928;-73
2023/12/13 01:45:05;;;;;;;;;;;7.90;99.90;;;;;;5052629;28;20399;-73
2023/12/13 01:47:31;;;;;;;;;;;7.90;99.90;;;;;;5052793;28;19932;-73
2023/12/13 01:49:57;;;;;;;;;;;7.90;99.90;;;;;;5054926;28;20044;-73
2023/12/13 01:52:22;;;;;;;;;;;7.90;99.90;;;;;;5070372;28;20375;-73
2023/12/13 01:54:49;;;;;;;;;;;7.90;99.90;;;;;;5050777;28;19985;-73
2023/12/13 01:57:15;;;;;;;;;;;7.90;99.90;;;;;;5060478;28;20000;-72
2023/12/13 01:59:41;;;;;;;;;;;7.90;99.90;;;;;;5054199;28;20501;-73
2023/12/13 02:02:07;;;;;;;;;;;7.80;99.90;;;;;;5035579;28;19932;-73
2023/12/13 02:04:34;;;;;;;;;;;7.90;99.90;;;;;;5064535;28;20385;-73
2023/12/13 02:07:00;;;;;;;;;;;7.90;99.90;;;;;;5048835;28;19928;-72
2023/12/13 02:09:26;;;;;;;;;;;7.90;99.90;;;;;;5071764;28;20383;-73
2023/12/13 02:11:52;;;;;;;;;;;7.80;99.90;;;;;;5054092;28;19924;-73
2023/12/13 02:14:18;;;;;;;;;;;7.80;99.90;;;;;;5070608;28;19967;-73
2023/12/13 02:16:43;;;;;;;;;;;7.80;99.90;;;;;;5036323;28;19932;-73
2023/12/13 02:19:10;;;;;;;;;;;7.80;99.90;;;;;;5049170;28;19932;-73
2023/12/13 02:21:36;;;;;;;;;;;7.80;99.90;;;;;;5072420;28;19928;-73
2023/12/13 02:24:03;;;;;;;;;;;7.80;99.90;;;;;;5050258;28;19925;-73
2023/12/13 02:26:29;;;;;;;;;;;7.80;99.90;;;;;;5067078;28;19933;-73
2023/12/13 02:28:54;;;;;;;;;;;7.80;99.90;;;;;;5071937;28;19925;-73
2023/12/13 02:31:21;;;;;;;;;;;7.80;99.90;;;;;;5053472;28;19938;-74
2023/12/13 02:33:46;;;;;;;;;;;7.80;99.90;;;;;;5081295;28;20065;-74
2023/12/13 02:36:12;;;;;;;;;;;7.80;99.90;;;;;;5086078;28;19928;-74
2023/12/13 02:38:40;;;;;;;;;;;7.80;99.90;;;;;;5055763;28;20388;-74
2023/12/13 02:41:06;;;;;;;;;;;7.80;99.90;;;;;;5051051;28;19971;-74
2023/12/13 02:43:32;;;;;;;;;;;7.80;99.90;;;;;;5032857;28;19967;-74
2023/12/13 02:45:57;;;;;;;;;;;7.80;99.90;;;;;;5065014;28;19973;-74
2023/12/13 02:48:23;;;;;;;;;;;7.80;99.90;;;;;;5082957;28;19932;-74
2023/12/13 02:50:49;;;;;;;;;;;7.80;99.90;;;;;;5085033;28;19932;-74
2023/12/13 02:53:14;;;;;;;;;;;7.80;99.90;;;;;;5038180;28;20663;-74
2023/12/13 02:55:40;;;;;;;;;;;7.90;99.90;;;;;;5054454;28;19924;-74
2023/12/13 02:58:06;;;;;;;;;;;7.90;99.90;;;;;;5081449;28;19985;-73
2023/12/13 03:00:31;;;;;;;;;;;7.90;99.90;;;;;;5070243;28;20109;-73
2023/12/13 03:02:57;;;;;;;;;;;7.90;99.90;;;;;;5063945;28;20429;-73
2023/12/13 03:05:23;;;;;;;;;;;7.90;99.90;;;;;;5049488;28;19939;-73
2023/12/13 03:07:49;;;;;;;;;;;7.90;99.90;;;;;;5053905;28;19928;-73
2023/12/13 03:10:14;;;;;;;;;;;7.90;99.90;;;;;;5047522;28;19932;-73
2023/12/13 03:12:40;;;;;;;;;;;7.90;99.90;;;;;;5081911;28;19924;-74
2023/12/13 03:15:06;;;;;;;;;;;7.90;99.90;;;;;;5081657;28;20396;-73
2023/12/13 03:17:31;;;;;;;;;;;7.90;99.90;;;;;;5082708;28;19927;-73
2023/12/13 03:19:57;;;;;;;;;;;7.90;99.90;;;;;;5072040;28;20019;-74
2023/12/13 03:22:23;;;;;;;;;;;7.90;99.90;;;;;;5049344;28;19932;-73
2023/12/13 03:24:50;;;;;;;;;;;7.80;99.90;;;;;;5053008;28;19978;-73
2023/12/13 03:27:15;;;;;;;;;;;7.80;99.90;;;;;;5051720;28;19935;-73
2023/12/13 03:29:41;;;;;;;;;;;7.80;99.90;;;;;;5052273;28;19932;-73
2023/12/13 03:32:06;;;;;;;;;;;7.80;99.90;;;;;;5034211;28;19925;-73
2023/12/13 03:34:32;;;;;;;;;;;7.90;99.90;;;;;;5080736;28;19939;-73
2023/12/13 03:36:57;;;;;;;;;;;7.90;99.90;;;;;;5052597;28;20446;-73
2023/12/13 03:39:23;;;;;;;;;;;7.80;99.90;;;;;;5088341;28;20019;-73
2023/12/13 03:41:48;;;;;;;;;;;7.80;99.90;;;;;;5048131;28;20403;-73
2023/12/13 03:44:14;;;;;;;;;;;7.80;99.90;;;;;;5070586;28;19925;-73
2023/12/13 03:46:39;;;;;;;;;;;7.80;99.90;;;;;;5067080;28;20422;-73
2023/12/13 03:49:05;;;;;;;;;;;7.80;99.90;;;;;;5063654;28;19978;-73
2023/12/13 03:51:31;;;;;;;;;;;7.80;99.90;;;;;;5073922;28;19992;-73
2023/12/13 03:53:56;;;;;;;;;;;7.80;99.90;;;;;;5077835;28;19978;-73
2023/12/13 03:56:22;;;;;;;;;;;7.80;99.90;;;;;;5060134;28;20085;-73
2023/12/13 03:58:47;;;;;;;;;;;7.80;99.90;;;;;;5060197;28;20300;-73
2023/12/13 04:01:13;;;;;;;;;;;7.80;99.90;;;;;;5059169;28;20092;-73
2023/12/13 04:03:38;;;;;;;;;;;7.80;99.90;;;;;;5039508;28;20364;-73
2023/12/13 04:06:04;;;;;;;;;;;7.80;99.90;;;;;;5087650;28;19924;-73
2023/12/13 04:08:30;;;;;;;;;;;7.80;99.90;;;;;;5056480;28;19954;-73
2023/12/13 04:10:55;;;;;;;;;;;7.90;99.90;;;;;;5059741;28;19989;-73
2023/12/13 04:13:21;;;;;;;;;;;7.80;99.90;;;;;;5057870;28;20327;-73
2023/12/13 04:15:46;;;;;;;;;;;7.80;99.90;;;;;;5054463;28;19939;-73
2023/12/13 04:18:12;;;;;;;;;;;7.80;99.90;;;;;;5089745;28;20280;-73
2023/12/13 04:20:38;;;;;;;;;;;7.90;99.90;;;;;;5073179;28;19925;-73
2023/12/13 04:23:04;;;;;;;;;;;7.80;99.90;;;;;;5056492;28;20096;-73
2023/12/13 04:25:29;;;;;;;;;;;7.80;99.90;;;;;;5073248;28;19924;-73
2023/12/13 04:27:55;;;;;;;;;;;7.90;99.90;;;;;;5071090;28;20504;-73
2023/12/13 04:30:20;;;;;;;;;;;7.80;99.90;;;;;;5060328;28;20442;-73
2023/12/13 04:32:46;;;;;;;;;;;7.80;99.90;;;;;;5072502;28;20015;-73
2023/12/13 04:35:11;;;;;;;;;;;7.80;99.90;;;;;;5077766;28;20037;-73
2023/12/13 04:37:37;;;;;;;;;;;7.80;99.90;;;;;;5072463;28;20027;-73
2023/12/13 04:40:04;;;;;;;;;;;7.80;99.90;;;;;;5043312;28;19934;-73
2023/12/13 04:42:29;;;;;;;;;;;7.80;99.90;;;;;;5089299;28;19960;-73
2023/12/13 04:44:55;;;;;;;;;;;7.70;99.90;;;;;;5061493;28;19963;-73
2023/12/13 04:47:20;;;;;;;;;;;7.80;99.90;;;;;;5059961;28;20324;-73
2023/12/13 04:49:46;;;;;;;;;;;7.70;99.90;;;;;;5075262;28;19970;-73
2023/12/13 04:52:11;;;;;;;;;;;7.80;99.90;;;;;;5060175;28;19928;-73
2023/12/13 04:54:37;;;;;;;;;;;7.80;99.90;;;;;;5057647;28;20279;-73
2023/12/13 04:57:05;;;;;;;;;;;7.80;99.90;;;;;;5038583;28;19932;-73
2023/12/13 04:59:31;;;;;;;;;;;7.70;99.90;;;;;;5074432;28;19924;-73
2023/12/13 05:01:56;;;;;;;;;;;7.80;99.90;;;;;;5082071;28;20248;-72
2023/12/13 05:04:22;;;;;;;;;;;7.70;99.90;;;;;;5035151;28;19924;-73
2023/12/13 05:06:48;;;;;;;;;;;7.80;99.90;;;;;;5087599;28;19928;-73
2023/12/13 05:09:14;;;;;;;;;;;7.70;99.90;;;;;;5084153;28;19925;-73
2023/12/13 05:11:39;;;;;;;;;;;7.80;99.90;;;;;;5051777;28;19972;-73
2023/12/13 05:14:05;;;;;;;;;;;7.70;99.90;;;;;;5068175;28;20424;-73
2023/12/13 05:16:30;;;;;;;;;;;7.80;99.90;;;;;;5052121;28;19933;-73
2023/12/13 05:18:56;;;;;;;;;;;7.80;99.90;;;;;;5069791;28;19931;-72
2023/12/13 05:21:21;;;;;;;;;;;7.80;99.90;;;;;;5066635;28;19928;-73
2023/12/13 05:23:47;;;;;;;;;;;7.80;99.90;;;;;;5038434;28;19937;-73
2023/12/13 05:26:13;;;;;;;;;;;7.80;99.90;;;;;;5050404;28;19936;-73
2023/12/13 05:28:38;;;;;;;;;;;7.80;99.90;;;;;;5066202;28;19982;-73
2023/12/13 05:31:04;;;;;;;;;;;7.70;99.90;;;;;;5065751;28;20342;-73
2023/12/13 05:33:29;;;;;;;;;;;7.70;99.90;;;;;;5073739;28;19939;-73
2023/12/13 05:35:55;;;;;;;;;;;7.70;99.90;;;;;;5070417;28;20392;-73
2023/12/13 05:38:20;;;;;;;;;;;7.70;99.90;;;;;;5053036;28;19939;-72
2023/12/13 05:40:46;;;;;;;;;;;7.70;99.90;;;;;;5057250;28;19924;-73
2023/12/13 05:43:12;;;;;;;;;;;7.70;99.90;;;;;;5068928;28;20383;-73
2023/12/13 05:45:38;;;;;;;;;;;7.70;99.90;;;;;;5056279;28;20292;-73
2023/12/13 05:48:04;;;;;;;;;;;7.70;99.90;;;;;;5052511;28;19932;-73
2023/12/13 05:50:30;;;;;;;;;;;7.70;99.90;;;;;;5068722;28;20302;-73
2023/12/13 05:52:55;;;;;;;;;;;7.70;99.90;;;;;;5054297;28;19950;-73
2023/12/13 05:55:21;;;;;;;;;;;7.70;99.90;;;;;;5070138;28;19959;-73
2023/12/13 05:57:46;;;;;;;;;;;7.70;99.90;;;;;;5073255;28;19935;-72
2023/12/13 06:00:13;;;;;;;;;;;7.60;99.90;;;;;;5053885;28;19978;-72
2023/12/13 06:02:38;;;;;;;;;;;7.70;99.90;;;;;;5055393;28;19928;-71
2023/12/13 06:05:04;;;;;;;;;;;7.60;99.90;;;;;;5085060;28;19959;-72
2023/12/13 06:07:30;;;;;;;;;;;7.70;99.90;;;;;;5054524;28;20412;-72
2023/12/13 06:09:55;;;;;;;;;;;7.60;99.90;;;;;;5055107;28;20462;-72
2023/12/13 06:12:21;;;;;;;;;;;7.60;99.90;;;;;;5069897;28;19932;-72
2023/12/13 06:14:46;;;;;;;;;;;7.70;99.90;;;;;;5052209;28;20051;-72
2023/12/13 06:17:12;;;;;;;;;;;7.60;99.90;;;;;;5056248;28;20015;-72
2023/12/13 06:19:37;;;;;;;;;;;7.70;99.90;;;;;;5050588;28;19937;-74
2023/12/13 06:22:03;;;;;;;;;;;7.60;99.90;;;;;;5079920;28;19929;-73
2023/12/13 06:24:28;;;;;;;;;;;7.70;99.90;;;;;;5081176;28;20379;-73
2023/12/13 06:26:54;;;;;;;;;;;7.70;99.90;;;;;;5090134;28;20024;-72
2023/12/13 06:29:19;;;;;;;;;;;7.70;99.90;;;;;;5082619;28;19924;-72
2023/12/13 06:31:45;;;;;;;;;;;7.70;99.90;;;;;;5052790;28;19929;-72
2023/12/13 06:34:10;;;;;;;;;;;7.70;99.90;;;;;;5070431;28;19924;-71
2023/12/13 06:36:36;;;;;;;;;;;7.70;99.90;;;;;;5048566;28;19998;-72
2023/12/13 06:39:04;;;;;;;;;;;7.70;99.90;;;;;;5051734;28;20287;-72
2023/12/13 06:41:30;;;;;;;;;;;7.70;99.90;;;;;;5035199;28;19924;-72
2023/12/13 06:43:56;;;;;;;;;;;7.70;99.90;;;;;;5052965;28;19932;-72
2023/12/13 06:46:22;;;;;;;;;;;7.70;99.90;;;;;;5060657;28;20347;-72
2023/12/13 06:48:48;;;;;;;;;;;7.80;99.90;;;;;;5049053;28;19929;-73
2023/12/13 06:51:13;;;;;;;;;;;7.70;99.90;;;;;;5049041;28;19939;-73
2023/12/13 06:53:39;;;;;;;;;;;7.80;99.90;;;;;;5046331;28;19927;-72
2023/12/13 06:56:05;;;;;;;;;;;7.80;99.90;;;;;;5045541;28;20032;-74
2023/12/13 06:58:30;;;;;;;;;;;7.80;99.90;;;;;;5045931;28;20362;-71
2023/12/13 07:00:56;;;;;;;;;;;7.80;99.90;;;;;;5046656;28;19921;-73
2023/12/13 07:03:21;;;;;;;;;;;7.80;99.90;;;;;;5044698;28;19932;-74
2023/12/13 07:05:47;;;;;;;;;;;7.80;99.90;;;;;;5049592;28;19928;-73
2023/12/13 07:08:13;;;;;;;;;;;7.70;99.90;;;;;;5043138;28;20013;-72
2023/12/13 07:10:38;;;;;;;;;;;7.70;99.90;;;;;;5048822;28;20380;-74
2023/12/13 07:13:04;;;;;;;;;;;7.70;99.90;;;;;;5043245;28;20296;-74
2023/12/13 07:15:29;;;;;;;;;;;7.70;99.90;;;;;;5048254;28;19978;-73
2023/12/13 07:17:55;;;;;;;;;;;7.70;99.90;;;;;;5043508;28;19931;-73
2023/12/13 07:20:21;;;;;;;;;;;7.70;99.90;;;;;;5049693;28;19921;-74
2023/12/13 07:22:49;;;;;;;;;;;7.70;99.90;;;;;;5046389;28;19979;-73
2023/12/13 07:25:15;;;;;;;;;;;7.70;99.90;;;;;;5038606;28;19955;-75
2023/12/13 07:27:40;;;;;;;;;;;7.70;99.90;;;;;;5053749;28;19932;-74
2023/12/13 07:30:06;;;;;;;;;;;7.60;99.90;;;;;;5077755;28;20195;-69
2023/12/13 07:32:33;;;;;;;;;;;7.60;99.90;;;;;;5051732;28;20360;-71
2023/12/13 07:34:59;;;;;;;;;;;7.60;99.90;;;;;;5044965;28;20391;-70
2023/12/13 07:37:24;;;;;;;;;;;7.60;99.90;;;;;;5042359;28;19929;-71
2023/12/13 07:39:50;;;;;;;;;;;7.60;99.90;;;;;;5045500;28;19972;-70
2023/12/13 07:42:16;;;;;;;;;;;7.60;99.90;;;;;;5047322;28;19924;-70
2023/12/13 07:44:42;;;;;;;;;;;7.60;99.90;;;;;;5044462;28;19960;-70
2023/12/13 07:47:07;;;;;;;;;;;7.60;99.90;;;;;;5042724;28;19940;-71
2023/12/13 07:49:33;;;;;;;;;;;7.60;99.90;;;;;;5050269;28;19932;-71
2023/12/13 07:51:58;;;;;;;;;;;7.60;99.90;;;;;;5044004;28;19929;-71
2023/12/13 07:54:24;;;;;;;;;;;7.60;99.90;;;;;;5047208;28;19955;-71
2023/12/13 07:56:52;;;;;;;;;;;7.70;99.90;;;;;;5046297;28;19933;-71
2023/12/13 07:59:18;;;;;;;;;;;7.60;99.90;;;;;;5046632;28;19933;-71
2023/12/13 08:01:43;;;;;;;;;;;7.60;99.90;;;;;;5038969;28;20400;-70
2023/12/13 08:04:09;;;;;;;;;;;7.60;99.90;;;;;;5044530;28;19992;-71
2023/12/13 08:06:34;;;;;;;;;;;7.60;99.90;;;;;;5037380;28;19931;-70
2023/12/13 08:09:01;;;;;;;;;;;7.60;99.90;;;;;;5047076;28;19980;-70
2023/12/13 08:11:27;;;;;;;;;;;7.60;99.90;;;;;;5048919;28;19925;-70
2023/12/13 08:13:52;;;;;;;;;;;7.60;99.90;;;;;;5048101;28;20443;-70
2023/12/13 08:16:18;;;;;;;;;;;7.60;99.90;;;;;;5054515;28;19971;-69
2023/12/13 08:18:44;;;;;;;;;;;7.70;99.90;;;;;;5060479;28;19928;-70
2023/12/13 08:21:10;;;;;;;;;;;7.60;99.90;;;;;;5055319;28;19986;-74
2023/12/13 08:23:35;;;;;;;;;;;7.60;99.90;;;;;;5055682;28;19951;-72
2023/12/13 08:26:01;;;;;;;;;;;7.60;99.90;;;;;;5054077;28;20595;-77
2023/12/13 08:28:26;;;;;;;;;;;7.60;99.90;;;;;;5047955;28;20224;-77
2023/12/13 08:30:52;;;;;;;;;;;7.70;99.90;;;;;;5047602;28;19979;-77
2023/12/13 08:33:17;;;;;;;;;;;7.70;99.90;;;;;;5051361;28;20016;-79
2023/12/13 08:35:43;;;;;;;;;;;7.60;99.90;;;;;;5045176;28;19929;-78
2023/12/13 08:38:08;;;;;;;;;;;7.60;99.90;;;;;;5049487;28;20500;-77
2023/12/13 08:40:34;;;;;;;;;;;7.70;99.90;;;;;;5042663;28;20414;-77
2023/12/13 08:43:00;;;;;;;;;;;7.70;99.90;;;;;;5031342;28;19932;-77
2023/12/13 08:45:25;;;;;;;;;;;7.70;99.90;;;;;;5049905;28;20439;-77
2023/12/13 08:47:51;;;;;;;;;;;7.70;99.90;;;;;;5052057;28;19925;-77
2023/12/13 08:50:17;;;;;;;;;;;7.70;99.90;;;;;;5051829;28;19933;-77
2023/12/13 08:52:42;;;;;;;;;;;7.70;99.90;;;;;;5048929;28;19928;-77
2023/12/13 08:55:08;;;;;;;;;;;7.70;99.90;;;;;;5049904;28;20018;-77
2023/12/13 08:57:34;;;;;;;;;;;7.70;99.90;;;;;;5047647;28;20515;-77
2023/12/13 09:00:00;;;;;;;;;;;7.70;99.90;;;;;;5047421;28;19920;-77
2023/12/13 09:02:25;;;;;;;;;;;7.70;99.90;;;;;;5043820;28;19924;-77
2023/12/13 09:04:51;;;;;;;;;;;7.80;99.90;;;;;;5050255;28;20364;-77
2023/12/13 09:07:17;;;;;;;;;;;7.80;99.90;;;;;;5031932;28;19939;-77
2023/12/13 09:09:43;;;;;;;;;;;7.80;99.90;;;;;;5051530;28;19940;-78
2023/12/13 09:12:08;;;;;;;;;;;7.80;99.90;;;;;;5031466;28;19929;-79
2023/12/13 09:14:34;;;;;;;;;;;7.80;99.90;;;;;;5050080;28;19951;-77
2023/12/13 09:17:01;;;;;;;;;;;7.90;99.90;;;;;;5048554;28;20022;-77
2023/12/13 09:19:26;;;;;;;;;;;7.90;99.90;;;;;;5049379;28;19962;-78
2023/12/13 09:21:52;;;;;;;;;;;7.90;99.90;;;;;;5043572;28;20026;-78
2023/12/13 09:24:18;;;;;;;;;;;7.90;99.90;;;;;;5046387;28;19936;-77
2023/12/13 09:26:43;;;;;;;;;;;8.00;99.90;;;;;;5028204;28;19928;-77
2023/12/13 09:29:09;;;;;;;;;;;7.90;99.90;;;;;;5048251;28;20687;-77
2023/12/13 09:31:35;;;;;;;;;;;8.00;99.90;;;;;;5033404;28;19954;-78
2023/12/13 09:34:02;;;;;;;;;;;8.00;99.90;;;;;;5046578;28;19920;-78
2023/12/13 09:36:27;;;;;;;;;;;8.00;99.90;;;;;;5049410;28;20281;-78
2023/12/13 09:38:53;;;;;;;;;;;8.00;99.90;;;;;;5047346;28;19927;-78
2023/12/13 09:41:25;;;;;;;;;;;8.00;99.90;;;;;;5049330;28;20448;-78
2023/12/13 09:43:53;;;;;;;;;;;8.00;99.90;;;;;;5042330;28;19937;-79
2023/12/13 09:46:19;;;;;;;;;;;8.10;99.90;;;;;;5045348;28;20553;-78
2023/12/13 09:48:45;;;;;;;;;;;8.10;99.90;;;;;;5027578;28;19968;-78
2023/12/13 09:51:12;;;;;;;;;;;8.10;99.90;;;;;;5053110;28;19969;-77
2023/12/13 09:53:38;;;;;;;;;;;8.20;99.90;;;;;;5053294;28;20273;-78
2023/12/13 09:56:04;;;;;;;;;;;8.20;99.90;;;;;;5046423;28;19944;-78
2023/12/13 09:58:29;;;;;;;;;;;8.20;99.90;;;;;;5036907;28;19933;-78
2023/12/13 10:00:56;;;;;;;;;;;8.20;99.90;;;;;;5054953;28;20136;-78
2023/12/13 10:03:21;;;;;;;;;;;8.20;99.90;;;;;;5048141;28;20001;-78
2023/12/13 10:05:48;;;;;;;;;;;8.20;99.90;;;;;;5056191;28;20372;-78
2023/12/13 10:08:14;;;;;;;;;;;8.20;99.90;;;;;;5057520;28;19931;-78
2023/12/13 10:10:39;;;;;;;;;;;8.30;99.90;;;;;;5087219;28;19928;-78
2023/12/13 10:13:07;;;;;;;;;;;8.30;99.90;;;;;;5045846;28;20343;-78
2023/12/13 10:15:33;;;;;;;;;;;8.30;99.90;;;;;;5058059;28;20055;-78
2023/12/13 10:17:59;;;;;;;;;;;8.40;99.90;;;;;;5050412;28;19964;-78
2023/12/13 10:20:26;;;;;;;;;;;8.30;99.90;;;;;;5055677;28;19924;-73
2023/12/13 10:22:52;;;;;;;;;;;8.40;99.90;;;;;;5048551;28;20380;-72
2023/12/13 10:25:21;;;;;;;;;;;8.40;99.90;;;;;;5051726;28;19940;-72
2023/12/13 10:27:47;;;;;;;;;;;8.40;99.90;;;;;;5082385;28;20331;-72
2023/12/13 10:30:13;;;;;;;;;;;8.50;99.90;;;;;;5051483;28;19935;-72
2023/12/13 10:32:40;;;;;;;;;;;8.50;99.90;;;;;;5081180;28;19982;-72
2023/12/13 10:35:06;;;;;;;;;;;8.50;99.90;;;;;;5047093;28;19936;-72
2023/12/13 10:37:33;;;;;;;;;;;8.50;99.90;;;;;;5047721;28;19928;-72
2023/12/13 10:39:59;;;;;;;;;;;8.50;99.90;;;;;;5049361;28;19994;-72
2023/12/13 10:42:25;;;;;;;;;;;8.60;99.90;;;;;;5051513;28;20403;-72
2023/12/13 10:44:51;;;;;;;;;;;8.60;99.90;;;;;;5049117;28;20213;-72
2023/12/13 10:47:19;;;;;;;;;;;8.60;99.90;;;;;;5047674;28;19928;-72
2023/12/13 10:49:45;;;;;;;;;;;8.60;99.90;;;;;;5046056;28;19990;-72
2023/12/13 10:52:11;;;;;;;;;;;8.60;99.90;;;;;;5049746;28;19928;-72
2023/12/13 10:54:38;;;;;;;;;;;8.60;99.90;;;;;;5058485;28;20749;-72
2023/12/13 10:57:03;;;;;;;;;;;8.60;99.90;;;;;;5043865;28;19940;-72
2023/12/13 10:59:29;;;;;;;;;;;8.70;99.90;;;;;;5047203;28;19925;-72
2023/12/13 11:01:56;;;;;;;;;;;8.70;99.90;;;;;;5051118;28;20351;-73
2023/12/13 11:04:22;;;;;;;;;;;8.70;99.90;;;;;;5049809;28;19935;-73
2023/12/13 11:06:47;;;;;;;;;;;8.70;99.90;;;;;;5045528;28;19933;-71
2023/12/13 11:09:17;;;;;;;;;;;8.70;99.90;;;;;;5047888;28;19976;-71
2023/12/13 11:11:43;;;;;;;;;;;8.80;99.90;;;;;;5051198;28;19964;-71
2023/12/13 11:14:09;;;;;;;;;;;8.70;99.90;;;;;;5048065;28;19964;-71
2023/12/13 11:16:39;;;;;;;;;;;8.80;99.90;;;;;;5046003;28;20364;-71
2023/12/13 11:19:05;;;;;;;;;;;8.80;99.90;;;;;;5046012;28;19924;-71
2023/12/13 11:21:31;;;;;;;;;;;8.80;99.90;;;;;;5047158;28;19978;-72
2023/12/13 11:24:00;;;;;;;;;;;8.80;99.90;;;;;;5049908;28;20088;-72
2023/12/13 11:26:26;;;;;;;;;;;8.80;99.90;;;;;;5044506;28;20403;-71
2023/12/13 11:28:54;;;;;;;;;;;8.90;99.90;;;;;;5045368;28;19940;-72
2023/12/13 11:31:23;;;;;;;;;;;8.90;99.90;;;;;;5049690;28;20094;-72
2023/12/13 11:33:50;;;;;;;;;;;8.90;99.90;;;;;;5043513;28;20047;-72
2023/12/13 11:36:22;;;;;;;;;;;8.90;99.90;;;;;;5044040;28;19925;-71
2023/12/13 11:38:49;;;;;;;;;;;9.00;99.90;;;;;;5045393;28;19940;-72
2023/12/13 11:41:15;;;;;;;;;;;9.10;99.90;;;;;;5049311;28;20371;-71
2023/12/13 11:43:41;;;;;;;;;;;9.10;99.90;;;;;;5045257;28;19986;-72
2023/12/13 11:46:07;;;;;;;;;;;9.10;99.90;;;;;;5046630;28;19925;-72
2023/12/13 11:48:32;;;;;;;;;;;9.10;99.90;;;;;;5040829;28;19933;-72
2023/12/13 11:50:58;;;;;;;;;;;9.10;99.90;;;;;;5047319;28;19934;-72
2023/12/13 11:53:23;;;;;;;;;;;9.10;99.90;;;;;;5070306;28;19934;-71
2023/12/13 11:55:49;;;;;;;;;;;9.10;99.90;;;;;;5058129;28;20454;-76
2023/12/13 11:58:15;;;;;;;;;;;9.10;99.90;;;;;;5052999;28;19929;-76
2023/12/13 12:00:42;;;;;;;;;;;9.10;99.90;;;;;;5054826;28;19986;-73
2023/12/13 12:03:08;;;;;;;;;;;9.10;99.90;;;;;;5049913;28;19933;-76
2023/12/13 12:05:34;;;;;;;;;;;9.20;99.90;;;;;;5054816;28;19970;-75
2023/12/13 12:08:01;;;;;;;;;;;9.20;99.90;;;;;;5035519;28;19959;-72
2023/12/13 12:10:28;;;;;;;;;;;9.20;99.90;;;;;;5057615;28;19986;-72
2023/12/13 12:12:54;;;;;;;;;;;9.20;99.90;;;;;;5058291;28;19928;-72
2023/12/13 12:15:20;;;;;;;;;;;9.20;99.90;;;;;;5067257;28;20000;-71
2023/12/13 12:17:46;;;;;;;;;;;9.20;99.90;;;;;;5051834;28;19971;-72
2023/12/13 12:20:12;;;;;;;;;;;9.20;99.90;;;;;;5067002;28;19929;-75
2023/12/13 12:22:38;;;;;;;;;;;9.20;99.90;;;;;;5087893;28;19932;-73
2023/12/13 12:25:05;;;;;;;;;;;9.20;99.90;;;;;;5051609;28;20441;-71
2023/12/13 12:27:31;;;;;;;;;;;9.20;99.90;;;;;;5050180;28;19974;-72
2023/12/13 12:29:56;;;;;;;;;;;9.20;99.90;;;;;;5070282;28;19959;-71
2023/12/13 12:32:22;;;;;;;;;;;9.20;99.90;;;;;;5064359;28;20502;-72
2023/12/13 12:34:48;;;;;;;;;;;9.20;99.90;;;;;;5063512;28;19933;-71
2023/12/13 12:37:17;;;;;;;;;;;9.20;99.90;;;;;;5051680;28;19932;-72
2023/12/13 12:39:43;;;;;;;;;;;9.10;99.90;;;;;;5051202;28;19936;-72
2023/12/13 12:42:09;;;;;;;;;;;9.20;99.90;;;;;;5032808;28;19932;-72
2023/12/13 12:44:35;;;;;;;;;;;9.20;99.90;;;;;;5084092;28;19939;-72
2023/12/13 12:47:00;;;;;;;;;;;9.10;99.90;;;;;;5046702;28;20291;-72
2023/12/13 12:49:26;;;;;;;;;;;9.10;99.90;;;;;;5048492;28;20399;-72
2023/12/13 12:51:52;;;;;;;;;;;9.20;99.90;;;;;;5050470;28;19925;-72
2023/12/13 12:54:17;;;;;;;;;;;9.20;99.90;;;;;;5049282;28;20385;-72
2023/12/13 12:56:43;;;;;;;;;;;9.10;99.90;;;;;;5085612;28;19954;-71
2023/12/13 12:59:14;;;;;;;;;;;9.10;99.90;;;;;;5050976;28;19929;-72
2023/12/13 13:01:43;;;;;;;;;;;9.10;99.90;;;;;;5073684;28;19967;-71
2023/12/13 13:04:12;;;;;;;;;;;9.20;99.90;;;;;;5051859;28;20383;-71
2023/12/13 13:06:37;;;;;;;;;;;9.10;99.90;;;;;;5044347;28;19929;-72
2023/12/13 13:09:03;;;;;;;;;;;9.10;99.90;;;;;;5043402;28;19985;-71
2023/12/13 13:11:29;;;;;;;;;;;9.10;99.90;;;;;;5043581;28;19960;-72
2023/12/13 13:13:54;;;;;;;;;;;9.10;99.90;;;;;;5046588;28;19960;-72
2023/12/13 13:16:21;;;;;;;;;;;9.10;99.90;;;;;;5051547;28;20008;-72
2023/12/13 13:18:46;;;;;;;;;;;9.10;99.90;;;;;;5050282;28;19925;-78
2023/12/13 13:21:12;;;;;;;;;;;9.10;99.90;;;;;;5044108;28;19921;-77
2023/12/13 13:23:37;;;;;;;;;;;9.00;99.90;;;;;;5047828;28;19925;-78
2023/12/13 13:26:04;;;;;;;;;;;9.00;99.90;;;;;;5036410;28;19929;-78
2023/12/13 13:28:30;;;;;;;;;;;9.00;99.90;;;;;;5047124;28;19977;-78
2023/12/13 13:30:56;;;;;;;;;;;9.00;99.90;;;;;;5048121;28;19932;-76
2023/12/13 13:33:22;;;;;;;;;;;8.90;99.90;;;;;;5032378;28;20011;-76
2023/12/13 13:35:50;;;;;;;;;;;8.90;99.90;;;;;;5053643;28;20366;-75
2023/12/13 13:38:16;;;;;;;;;;;8.90;99.90;;;;;;5048097;28;19933;-74
2023/12/13 13:40:41;;;;;;;;;;;8.90;99.90;;;;;;5046590;28;19925;-74
2023/12/13 13:43:07;;;;;;;;;;;8.80;99.90;;;;;;5044677;28;19939;-74
2023/12/13 13:45:33;;;;;;;;;;;8.70;99.90;;;;;;5046673;28;19976;-75
2023/12/13 13:47:59;;;;;;;;;;;8.80;99.90;;;;;;5040452;28;19983;-75
2023/12/13 13:50:26;;;;;;;;;;;8.70;99.90;;;;;;5049585;28;20884;-76
2023/12/13 13:52:52;;;;;;;;;;;8.80;99.90;;;;;;5048920;28;19924;-76
2023/12/13 13:55:17;;;;;;;;;;;8.70;99.90;;;;;;5045531;28;19978;-77
2023/12/13 13:57:44;;;;;;;;;;;8.70;99.90;;;;;;5046287;28;19928;-77
2023/12/13 14:00:11;;;;;;;;;;;8.70;99.90;;;;;;5053088;28;19933;-77
2023/12/13 14:02:36;;;;;;;;;;;8.70;99.90;;;;;;5036860;28;19970;-77
2023/12/13 14:05:03;;;;;;;;;;;8.70;99.90;;;;;;5039888;28;19925;-77
2023/12/13 14:07:29;;;;;;;;;;;8.60;99.90;;;;;;5029634;28;19924;-76
2023/12/13 14:09:55;;;;;;;;;;;8.60;99.90;;;;;;5046749;28;19940;-77
2023/12/13 14:12:21;;;;;;;;;;;8.70;99.90;;;;;;5047144;28;19951;-77
2023/12/13 14:14:46;;;;;;;;;;;8.60;99.90;;;;;;5062273;28;20446;-77
2023/12/13 14:17:12;;;;;;;;;;;8.60;99.90;;;;;;5047123;28;19925;-77
2023/12/13 14:19:38;;;;;;;;;;;8.60;99.90;;;;;;5046514;28;20323;-77
2023/12/13 14:22:04;;;;;;;;;;;8.60;99.90;;;;;;5045989;28;20257;-77